MST,Max TemperatureF,Mean TemperatureF,Min TemperatureF,Max Dew PointF,MeanDew PointF,Min DewpointF,Max Humidity, Mean Humidity, Min Humidity, Max Sea Level PressureIn, Mean Sea Level PressureIn, Min Sea Level PressureIn, Max VisibilityMiles, Mean VisibilityMiles, Min VisibilityMiles, Max Wind SpeedMPH, Mean Wind SpeedMPH, Max Gust SpeedMPH,PrecipitationIn, CloudCover, Events, WindDirDegrees
2012-9-1,90,78,66,61,57,54,75,51,29,30.05,29.92,29.85,10,10,5,30,3,44,0.01,1,Rain-Thunderstorm,186
2012-9-2,89,80,70,58,55,50,65,45,21,30.08,29.93,29.85,10,10,10,15,3,25,0.00,1,Thunderstorm,168
2012-9-3,91,78,66,54,50,46,61,37,13,30.01,29.93,29.86,10,10,10,14,4,20,0.00,0,,200
2012-9-4,91,80,69,53,48,45,48,33,16,30.15,29.97,29.90,10,10,10,15,4,28,0.00,1,Thunderstorm,202
2012-9-5,95,80,64,53,45,37,55,31,7,29.97,29.88,29.78,10,10,10,7,2,,0.00,0,,255
2012-9-6,96,83,70,50,48,44,41,28,13,29.88,29.82,29.75,10,10,10,12,4,21,0.00,1,,274
2012-9-7,93,83,73,51,47,41,40,27,11,29.94,29.90,29.84,10,10,10,7,4,16,0.00,1,,330
2012-9-8,93,80,68,46,33,24,40,19,5,30.04,29.96,29.89,10,10,10,12,4,,0.00,0,,42
2012-9-9,91,80,68,49,43,31,43,27,10,30.03,29.93,29.84,10,10,10,12,4,,0.00,0,,201
2012-9-10,90,79,68,55,48,39,55,35,19,30.09,29.89,29.82,10,10,10,17,5,28,0.01,1,Thunderstorm,216
2012-9-11,72,68,64,63,58,52,88,69,49,30.12,29.95,29.85,10,9,2,9,3,,0.20,6,Rain,292
2012-9-12,80,72,64,59,55,48,81,58,24,30.14,30.00,29.93,10,10,10,8,2,,0.00,4,,353
2012-9-13,84,72,59,53,36,19,70,32,9,30.18,30.12,30.05,10,10,10,9,2,16,0.00,0,,116
2012-9-14,82,72,63,44,40,32,47,31,9,30.25,30.15,30.07,10,10,10,8,4,16,0.00,0,,197
2012-9-15,88,74,61,40,33,22,41,23,4,30.16,30.06,29.95,10,10,10,7,3,,0.00,0,,196
2012-9-16,90,76,62,34,28,22,32,17,4,30.04,29.95,29.87,10,10,10,14,4,23,0.00,0,,281
2012-9-17,90,76,63,31,27,19,28,15,5,30.10,29.90,29.82,10,10,10,8,2,,0.00,0,,296
2012-9-18,88,74,60,26,21,16,25,14,4,30.05,29.98,29.92,10,10,10,6,2,,0.00,0,,27
2012-9-19,90,76,61,25,21,12,25,14,4,30.10,29.99,29.92,10,10,10,6,3,,0.00,0,,196
2012-9-20,90,76,61,29,24,18,28,15,4,30.20,29.95,29.87,10,10,10,6,2,,0.00,0,,190
2012-9-21,91,77,63,29,23,17,27,14,4,30.01,29.93,29.86,10,10,10,7,2,,0.00,0,,44
2012-9-22,91,76,61,34,28,23,25,15,5,30.03,29.94,29.88,10,10,10,8,3,,0.00,0,,212
2012-9-23,89,78,68,39,37,34,30,22,11,30.01,29.95,29.89,10,10,10,12,4,18,0.00,2,,199
2012-9-24,84,75,66,44,38,33,44,26,9,30.08,29.88,29.75,10,10,5,14,6,30,0.01,3,Rain-Thunderstorm,238
2012-9-25,77,69,61,51,47,43,70,46,21,30.01,29.86,29.76,10,10,10,10,5,,0.00,3,Rain,19
2012-9-26,81,69,57,47,43,39,59,39,16,29.96,29.89,29.85,10,10,10,8,3,,0.00,0,,26
2012-9-27,81,69,57,44,40,35,60,36,11,30.11,29.98,29.91,10,10,10,7,2,,0.00,0,,59
2012-9-28,82,70,57,42,37,31,48,30,8,30.02,29.93,29.86,10,10,10,8,2,,0.00,0,,41
2012-9-29,86,72,59,38,34,28,39,25,7,30.04,29.97,29.91,10,10,10,8,3,,0.00,0,,297
2012-9-30,87,74,60,34,30,27,33,20,5,30.08,30.00,29.94,10,10,10,8,3,,0.00,0,,142